createdAt,value
2022-08-02T00:02:00.381Z,101799.59
2022-08-02T00:04:57.247Z,101801.72
2022-08-02T00:07:54.368Z,101788.03
2022-08-02T00:10:51.325Z,101797.44
2022-08-02T00:13:48.283Z,101802.28
2022-08-02T00:16:45.345Z,101806.34
2022-08-02T00:19:42.461Z,101789.00
2022-08-02T00:22:39.318Z,101798.13
2022-08-02T00:25:36.180Z,101801.66
2022-08-02T00:28:53.315Z,101789.50
2022-08-02T00:31:50.180Z,101779.84
2022-08-02T00:34:47.376Z,101781.72
2022-08-02T00:37:44.513Z,101784.25
2022-08-02T00:40:41.381Z,101788.50
2022-08-02T00:43:39.167Z,101789.50
2022-08-02T00:46:35.972Z,101786.41
2022-08-02T00:49:33.448Z,101796.56
2022-08-02T00:52:30.558Z,101788.53
2022-08-02T00:55:31.136Z,101788.13
2022-08-02T00:58:28.479Z,101787.13
2022-08-02T01:01:56.626Z,101782.91
2022-08-02T01:04:55.159Z,101794.09
2022-08-02T01:07:52.230Z,101800.50
2022-08-02T01:10:49.305Z,101797.00
2022-08-02T01:13:47.256Z,101785.16
2022-08-02T01:16:51.259Z,101785.16
2022-08-02T01:20:12.386Z,101789.50
2022-08-02T01:23:18.129Z,101801.59
2022-08-02T01:26:42.562Z,101801.00
2022-08-02T01:29:43.254Z,101791.47
2022-08-02T01:32:45.286Z,101789.13
2022-08-02T01:35:51.104Z,101790.56
2022-08-02T01:38:49.590Z,101783.03
2022-08-02T01:41:46.543Z,101793.91
2022-08-02T01:44:43.356Z,101787.41
2022-08-02T01:47:40.701Z,101776.66
2022-08-02T01:50:38.260Z,101773.94
2022-08-02T01:53:34.954Z,101758.75
2022-08-02T01:56:32.469Z,101759.72
2022-08-02T01:59:30.186Z,101777.72
2022-08-02T02:02:31.583Z,101772.28
2022-08-02T02:05:29.898Z,101776.50
2022-08-02T02:08:32.456Z,101768.59
2022-08-02T02:12:14.112Z,101752.69
2022-08-02T02:14:50.027Z,101761.94
2022-08-02T02:18:10.965Z,101759.44
2022-08-02T02:21:08.309Z,101765.53
2022-08-02T02:24:05.859Z,101765.41
2022-08-02T02:27:06.722Z,101751.25
2022-08-02T02:30:05.381Z,101740.84
2022-08-02T02:33:03.337Z,101738.38
2022-08-02T02:36:00.834Z,101727.88
2022-08-02T02:39:00.446Z,101728.34
2022-08-02T02:42:01.505Z,101724.31
2022-08-02T02:44:59.481Z,101717.25
2022-08-02T02:47:56.375Z,101726.91
2022-08-02T02:50:54.158Z,101726.41
2022-08-02T02:54:29.812Z,101717.41
2022-08-02T02:57:09.287Z,101720.72
2022-08-02T03:00:12.681Z,101720.88
2022-08-02T03:03:10.419Z,101721.84
2022-08-02T03:06:15.174Z,101725.97
2022-08-02T03:09:13.388Z,101732.59
2022-08-02T03:12:10.359Z,101733.16
2022-08-02T03:15:08.292Z,101725.25
2022-08-02T03:18:07.796Z,101712.03
2022-08-02T03:21:06.968Z,101702.78
2022-08-02T03:24:05.050Z,101703.47
2022-08-02T03:27:03.077Z,101703.06
2022-08-02T03:30:00.328Z,101691.84
2022-08-02T03:32:57.579Z,101684.94
2022-08-02T03:35:56.659Z,101686.38
2022-08-02T03:38:53.681Z,101690.38
2022-08-02T03:41:50.638Z,101689.78
2022-08-02T03:44:48.130Z,101696.75
2022-08-02T03:47:45.571Z,101692.72
2022-08-02T03:50:42.730Z,101695.00
2022-08-02T03:53:40.645Z,101700.09
2022-08-02T03:56:37.648Z,101692.38
2022-08-02T03:59:45.229Z,101693.72
2022-08-02T04:02:42.259Z,101699.72
2022-08-02T04:06:00.903Z,101686.69
2022-08-02T04:08:56.711Z,101674.78
2022-08-02T04:11:53.612Z,101695.69
2022-08-02T04:14:50.443Z,101693.09
2022-08-02T04:17:53.599Z,101697.00
2022-08-02T04:20:50.765Z,101688.25
2022-08-02T04:23:48.846Z,101683.84
2022-08-02T04:26:48.139Z,101691.44
2022-08-02T04:29:47.873Z,101688.63
2022-08-02T04:32:45.715Z,101691.91
2022-08-02T04:35:42.555Z,101691.41
2022-08-02T04:38:39.490Z,101692.94
2022-08-02T04:41:40.725Z,101697.28
2022-08-02T04:44:41.673Z,101694.28
2022-08-02T04:48:02.568Z,101686.59
2022-08-02T04:50:56.703Z,101678.53
2022-08-02T04:53:53.557Z,101687.75
2022-08-02T04:57:22.463Z,101689.84
2022-08-02T05:00:19.677Z,101693.31
2022-08-02T05:03:16.707Z,101696.63
2022-08-02T05:06:19.397Z,101692.94
2022-08-02T05:09:16.181Z,101702.91
2022-08-02T05:12:13.779Z,101706.91
2022-08-02T05:15:16.672Z,101699.47
2022-08-02T05:18:13.601Z,101689.66
2022-08-02T05:21:11.698Z,101697.13
2022-08-02T05:24:08.918Z,101706.47
2022-08-02T05:27:17.075Z,101707.50
2022-08-02T05:30:18.674Z,101700.41
2022-08-02T05:33:15.372Z,101697.59
2022-08-02T05:36:12.610Z,101691.34
2022-08-02T05:39:10.816Z,101694.66
2022-08-02T05:42:09.825Z,101702.34
2022-08-02T05:45:08.544Z,101695.81
2022-08-02T05:48:05.964Z,101711.41
2022-08-02T05:51:04.477Z,101708.28
2022-08-02T05:54:19.954Z,101702.31
2022-08-02T05:57:31.367Z,101694.22
2022-08-02T06:00:33.287Z,101683.38
2022-08-02T06:03:41.026Z,101689.84
2022-08-02T06:06:38.629Z,101694.13
2022-08-02T06:09:35.555Z,101687.84
2022-08-02T06:12:33.949Z,101684.97
2022-08-02T06:15:31.786Z,101675.44
2022-08-02T06:18:29.170Z,101675.53
2022-08-02T06:22:31.689Z,101678.28
2022-08-02T06:24:46.669Z,101690.47
2022-08-02T06:27:43.672Z,101689.22
2022-08-02T06:30:40.968Z,101686.72
2022-08-02T06:33:38.915Z,101673.94
2022-08-02T06:37:05.649Z,101670.22
2022-08-02T06:40:15.210Z,101659.59
2022-08-02T06:43:31.009Z,101660.88
2022-08-02T06:46:37.765Z,101674.69
2022-08-02T06:49:51.476Z,101687.63
2022-08-02T06:52:51.747Z,101691.28
2022-08-02T06:55:48.749Z,101688.31
2022-08-02T06:58:45.885Z,101691.44
2022-08-02T07:01:43.797Z,101684.78
2022-08-02T07:04:40.612Z,101693.25
2022-08-02T07:07:37.542Z,101678.06
2022-08-02T07:10:38.056Z,101668.94
2022-08-02T07:13:39.722Z,101668.94
2022-08-02T07:16:38.143Z,101669.75
2022-08-02T07:19:37.641Z,101658.97
2022-08-02T07:22:35.514Z,101663.38
2022-08-02T07:26:02.777Z,101655.03
2022-08-02T07:28:49.590Z,101660.56
2022-08-02T07:31:46.754Z,101659.09
2022-08-02T07:34:50.525Z,101659.38
2022-08-02T07:37:55.020Z,101656.44
2022-08-02T07:40:55.688Z,101643.88
2022-08-02T07:43:52.829Z,101645.44
2022-08-02T07:46:49.650Z,101655.44
2022-08-02T07:49:46.577Z,101652.16
2022-08-02T07:52:43.412Z,101652.69
2022-08-02T07:55:40.882Z,101646.38
2022-08-02T07:58:37.721Z,101648.94
2022-08-02T08:01:34.753Z,101643.25
2022-08-02T08:04:35.871Z,101641.59
2022-08-02T08:07:32.522Z,101640.50
2022-08-02T08:10:29.754Z,101636.13
2022-08-02T08:13:26.647Z,101632.06
2022-08-02T08:16:26.184Z,101617.22
2022-08-02T08:19:51.472Z,101625.50
2022-08-02T08:22:40.898Z,101625.09
2022-08-02T08:25:39.737Z,101619.81
2022-08-02T08:28:38.839Z,101617.72
2022-08-02T08:31:35.594Z,101618.16
2022-08-02T08:34:32.632Z,101605.91
2022-08-02T08:37:34.736Z,101615.81
2022-08-02T08:40:31.402Z,101606.84
2022-08-02T08:43:28.742Z,101609.72
2022-08-02T08:46:32.483Z,101606.03
2022-08-02T08:49:31.524Z,101598.59
2022-08-02T08:52:28.810Z,101606.81
2022-08-02T08:55:25.736Z,101592.06
2022-08-02T08:58:22.943Z,101587.53
2022-08-02T09:01:19.744Z,101596.16
2022-08-02T09:04:17.383Z,101601.47
2022-08-02T09:07:14.689Z,101590.72
2022-08-02T09:10:32.434Z,101590.22
2022-08-02T09:13:44.933Z,101581.25
2022-08-02T09:16:43.372Z,101577.88
2022-08-02T09:19:45.855Z,101578.63
2022-08-02T09:22:43.940Z,101586.69
2022-08-02T09:25:40.960Z,101577.66
2022-08-02T09:29:00.908Z,101582.38
2022-08-02T09:32:03.353Z,101588.03
2022-08-02T09:35:00.549Z,101584.66
2022-08-02T09:38:08.834Z,101589.41
2022-08-02T09:41:07.202Z,101580.63
2022-08-02T09:44:06.647Z,101585.91
2022-08-02T09:47:14.261Z,101582.06
2022-08-02T09:50:14.972Z,101584.34
2022-08-02T09:53:15.817Z,101587.88
2022-08-02T09:56:30.329Z,101586.34
2022-08-02T09:59:29.985Z,101590.50
2022-08-02T10:02:26.882Z,101584.16
2022-08-02T10:05:23.855Z,101587.63
2022-08-02T10:08:20.974Z,101579.50
2022-08-02T10:11:17.786Z,101576.56
2022-08-02T10:14:14.944Z,101578.22
2022-08-02T10:17:11.962Z,101575.13
2022-08-02T10:20:09.582Z,101577.91
2022-08-02T10:23:08.707Z,101574.91
2022-08-02T10:26:05.697Z,101569.38
2022-08-02T10:29:02.806Z,101573.41
2022-08-02T10:32:07.877Z,101570.06
2022-08-02T10:35:18.478Z,101555.19
2022-08-02T10:38:17.958Z,101552.31
2022-08-02T10:41:15.007Z,101546.47
2022-08-02T10:44:31.720Z,101535.06
2022-08-02T10:47:30.180Z,101546.59
2022-08-02T10:50:46.377Z,101554.66
2022-08-02T10:53:43.709Z,101536.38
2022-08-02T10:56:50.425Z,101537.38
2022-08-02T10:59:49.079Z,101539.09
2022-08-02T11:02:47.324Z,101536.91
2022-08-02T11:06:01.930Z,101537.75
2022-08-02T11:09:32.944Z,101531.56
2022-08-02T11:12:30.674Z,101532.44
2022-08-02T11:15:27.822Z,101535.63
2022-08-02T11:18:50.796Z,101543.94
2022-08-02T11:22:06.277Z,101535.19
2022-08-02T11:25:32.108Z,101526.94
2022-08-02T11:28:36.012Z,101530.56
2022-08-02T11:31:43.168Z,101527.22
2022-08-02T11:34:41.087Z,101526.59
2022-08-02T11:37:40.797Z,101524.28
2022-08-02T11:40:38.614Z,101519.69
2022-08-02T11:43:35.603Z,101526.44
2022-08-02T11:46:33.016Z,101525.16
2022-08-02T11:49:30.566Z,101504.44
2022-08-02T11:52:33.141Z,101504.28
2022-08-02T11:55:30.486Z,101513.31
2022-08-02T11:58:27.808Z,101509.72
2022-08-02T12:01:24.762Z,101508.56
2022-08-02T12:04:22.846Z,101501.25
2022-08-02T12:07:34.638Z,101502.69
2022-08-02T12:10:32.849Z,101487.03
2022-08-02T12:13:44.791Z,101491.34
2022-08-02T12:17:12.414Z,101486.03
2022-08-02T12:20:11.057Z,101481.44
2022-08-02T12:23:08.839Z,101483.88
2022-08-02T12:26:06.534Z,101491.25
2022-08-02T12:29:03.967Z,101485.19
2022-08-02T12:32:05.678Z,101490.13
2022-08-02T12:35:07.499Z,101478.41
2022-08-02T12:38:09.927Z,101474.47
2022-08-02T12:41:31.185Z,101469.09
2022-08-02T12:44:29.606Z,101462.66
2022-08-02T12:47:35.490Z,101467.44
2022-08-02T12:50:34.814Z,101469.00
2022-08-02T12:53:33.320Z,101470.81
2022-08-02T12:56:32.391Z,101474.63
2022-08-02T12:59:38.392Z,101471.88
2022-08-02T13:02:36.692Z,101464.56
2022-08-02T13:05:55.818Z,101462.47
2022-08-02T13:08:54.561Z,101477.97
2022-08-02T13:11:52.139Z,101470.53
2022-08-02T13:14:49.815Z,101468.78
2022-08-02T13:17:47.006Z,101455.88
2022-08-02T13:20:45.663Z,101448.78
2022-08-02T13:23:54.960Z,101456.75
2022-08-02T13:26:52.881Z,101449.22
2022-08-02T13:29:50.714Z,101448.34
2022-08-02T13:32:48.094Z,101440.69
2022-08-02T13:35:45.125Z,101431.22
2022-08-02T13:38:41.742Z,101436.28
2022-08-02T13:41:38.880Z,101438.25
2022-08-02T13:44:36.186Z,101431.22
2022-08-02T13:47:36.386Z,101433.97
2022-08-02T13:50:50.155Z,101428.53
2022-08-02T13:53:47.170Z,101433.03
2022-08-02T13:56:43.736Z,101418.84
2022-08-02T13:59:56.123Z,101419.56
2022-08-02T14:02:56.082Z,101421.84
2022-08-02T14:05:52.977Z,101417.03
2022-08-02T14:08:49.772Z,101415.50
2022-08-02T14:11:46.912Z,101418.81
2022-08-02T14:14:43.978Z,101416.91
2022-08-02T14:17:41.034Z,101425.84
2022-08-02T14:20:37.764Z,101419.81
2022-08-02T14:23:49.764Z,101422.81
2022-08-02T14:26:48.264Z,101412.47
2022-08-02T14:29:44.567Z,101411.03
2022-08-02T14:32:41.647Z,101406.44
2022-08-02T14:35:39.281Z,101413.00
2022-08-02T14:38:37.845Z,101412.19
2022-08-02T14:41:58.321Z,101411.22
2022-08-02T14:44:54.004Z,101396.97
2022-08-02T14:47:51.009Z,101398.56
2022-08-02T14:50:47.668Z,101389.19
2022-08-02T14:53:49.724Z,101401.03
2022-08-02T14:57:02.325Z,101389.94
2022-08-02T15:00:01.585Z,101399.41
2022-08-02T15:02:59.130Z,101397.38
2022-08-02T15:05:57.348Z,101402.19
2022-08-02T15:08:54.760Z,101396.25
2022-08-02T15:11:51.921Z,101386.03
2022-08-02T15:14:49.877Z,101386.47
2022-08-02T15:17:46.844Z,101382.59
2022-08-02T15:20:50.772Z,101395.56
2022-08-02T15:23:54.825Z,101391.03
2022-08-02T15:26:52.838Z,101378.97
2022-08-02T15:29:50.249Z,101378.97
2022-08-02T15:32:52.870Z,101385.97
2022-08-02T15:35:50.871Z,101388.41
2022-08-02T15:38:48.269Z,101379.81
2022-08-02T15:41:47.980Z,101375.38
2022-08-02T15:44:45.650Z,101376.19
2022-08-02T15:47:48.216Z,101384.63
2022-08-02T15:50:47.870Z,101371.19
2022-08-02T15:53:44.904Z,101374.09
2022-08-02T15:56:47.216Z,101368.97
2022-08-02T15:59:44.160Z,101369.06
2022-08-02T16:02:41.310Z,101370.56
2022-08-02T16:05:38.258Z,101367.84
2022-08-02T16:08:35.148Z,101363.06
2022-08-02T16:11:31.979Z,101365.72
2022-08-02T16:14:29.649Z,101357.47
2022-08-02T16:17:51.682Z,101351.56
2022-08-02T16:20:44.236Z,101364.88
2022-08-02T16:24:00.736Z,101357.94
2022-08-02T16:26:58.482Z,101349.59
2022-08-02T16:29:56.093Z,101358.88
2022-08-02T16:32:52.939Z,101354.78
2022-08-02T16:35:50.322Z,101353.28
2022-08-02T16:38:47.536Z,101360.34
2022-08-02T16:41:51.288Z,101345.47
2022-08-02T16:44:53.339Z,101343.50
2022-08-02T16:47:57.270Z,101342.34
2022-08-02T16:50:56.327Z,101343.63
2022-08-02T16:53:59.876Z,101335.03
2022-08-02T16:56:58.035Z,101332.94
2022-08-02T16:59:57.241Z,101322.78
2022-08-02T17:02:59.295Z,101317.44
2022-08-02T17:05:57.374Z,101335.34
2022-08-02T17:08:56.375Z,101325.75
2022-08-02T17:11:54.081Z,101339.13
2022-08-02T17:14:54.860Z,101323.41
2022-08-02T17:17:53.310Z,101324.34
2022-08-02T17:20:50.227Z,101327.25
2022-08-02T17:24:06.036Z,101323.66
2022-08-02T17:27:05.201Z,101323.53
2022-08-02T17:30:02.112Z,101326.09
2022-08-02T17:33:00.470Z,101329.69
2022-08-02T17:36:00.173Z,101323.53
2022-08-02T17:38:58.306Z,101325.28
2022-08-02T17:41:54.938Z,101329.44
2022-08-02T17:44:53.591Z,101327.22
2022-08-02T17:48:03.913Z,101326.69
2022-08-02T17:51:02.307Z,101329.59
2022-08-02T17:53:59.500Z,101329.94
2022-08-02T17:56:58.285Z,101342.22
2022-08-02T18:00:04.215Z,101335.28
2022-08-02T18:03:05.809Z,101337.03
2022-08-02T18:06:05.108Z,101337.03
2022-08-02T18:09:07.546Z,101340.03
2022-08-02T18:12:05.646Z,101343.75
2022-08-02T18:15:06.670Z,101340.38
2022-08-02T18:18:11.119Z,101345.50
2022-08-02T18:21:22.085Z,101350.84
2022-08-02T18:24:24.132Z,101351.28
2022-08-02T18:27:21.558Z,101358.72
2022-08-02T18:30:23.070Z,101356.22
2022-08-02T18:33:57.154Z,101363.53
2022-08-02T18:36:47.373Z,101371.69
2022-08-02T18:39:51.411Z,101371.47
2022-08-02T18:42:49.195Z,101368.97
2022-08-02T18:46:05.883Z,101375.03
2022-08-02T18:49:06.802Z,101368.56
2022-08-02T18:52:12.609Z,101375.03
2022-08-02T18:55:10.501Z,101379.22
2022-08-02T18:58:20.210Z,101372.34
2022-08-02T19:01:31.870Z,101378.72
2022-08-02T19:04:30.657Z,101376.19
2022-08-02T19:07:50.522Z,101384.06
2022-08-02T19:10:49.302Z,101380.69
2022-08-02T19:13:47.534Z,101375.81
2022-08-02T19:16:46.296Z,101385.13
2022-08-02T19:19:45.510Z,101379.19
2022-08-02T19:22:44.332Z,101388.97
2022-08-02T19:25:45.210Z,101385.38
2022-08-02T19:28:52.989Z,101389.91
2022-08-02T19:32:00.178Z,101393.91
2022-08-02T19:35:03.965Z,101402.50
2022-08-02T19:38:17.099Z,101397.16
2022-08-02T19:41:15.737Z,101391.63
2022-08-02T19:44:24.593Z,101384.66
2022-08-02T19:47:26.278Z,101386.97
2022-08-02T19:50:36.121Z,101396.34
2022-08-02T19:53:46.619Z,101403.56
2022-08-02T19:56:47.591Z,101413.81
2022-08-02T19:59:45.071Z,101419.78
2022-08-02T20:02:43.352Z,101416.44
2022-08-02T20:05:46.511Z,101420.84
2022-08-02T20:08:53.478Z,101425.81
2022-08-02T20:11:55.222Z,101425.09
2022-08-02T20:14:55.070Z,101422.69
2022-08-02T20:17:52.314Z,101422.84
2022-08-02T20:20:49.181Z,101426.13
2022-08-02T20:23:46.497Z,101419.31
2022-08-02T20:26:48.914Z,101417.97
2022-08-02T20:29:49.838Z,101422.50
2022-08-02T20:32:52.755Z,101420.84
2022-08-02T20:35:53.182Z,101420.56
2022-08-02T20:38:50.207Z,101413.22
2022-08-02T20:41:51.881Z,101429.63
2022-08-02T20:44:55.159Z,101418.31
2022-08-02T20:47:54.422Z,101423.34
2022-08-02T20:50:54.104Z,101427.16
2022-08-02T20:53:55.209Z,101420.31
2022-08-02T20:56:53.515Z,101412.38
2022-08-02T20:59:51.963Z,101409.72
2022-08-02T21:02:49.601Z,101415.94
2022-08-02T21:05:54.873Z,101423.41
2022-08-02T21:08:53.109Z,101418.38
2022-08-02T21:11:50.811Z,101416.50
2022-08-02T21:14:48.287Z,101413.28
2022-08-02T21:17:55.020Z,101408.41
2022-08-02T21:20:56.524Z,101422.78
2022-08-02T21:23:54.679Z,101413.53
2022-08-02T21:26:52.522Z,101413.44
2022-08-02T21:29:52.331Z,101405.09
2022-08-02T21:32:54.744Z,101402.09
2022-08-02T21:35:54.463Z,101414.16
2022-08-02T21:38:51.479Z,101410.13
2022-08-02T21:41:49.494Z,101405.59
2022-08-02T21:44:46.513Z,101414.47
2022-08-02T21:47:50.934Z,101409.25
2022-08-02T21:50:49.331Z,101411.97
2022-08-02T21:54:17.592Z,101400.56
2022-08-02T21:57:04.497Z,101404.50
2022-08-02T22:00:01.346Z,101403.13
2022-08-02T22:02:58.476Z,101399.63
2022-08-02T22:05:56.444Z,101412.78
2022-08-02T22:08:53.332Z,101417.13
2022-08-02T22:11:52.445Z,101406.56
2022-08-02T22:14:54.987Z,101412.84
2022-08-02T22:17:59.978Z,101407.97
2022-08-02T22:20:57.475Z,101415.31
2022-08-02T22:23:55.509Z,101412.13
2022-08-02T22:26:52.430Z,101416.16
2022-08-02T22:29:49.461Z,101418.84
2022-08-02T22:33:14.991Z,101411.97
2022-08-02T22:36:12.671Z,101417.00
2022-08-02T22:39:18.803Z,101418.44
2022-08-02T22:42:16.829Z,101420.50
2022-08-02T22:45:14.521Z,101420.38
2022-08-02T22:48:11.702Z,101417.00
2022-08-02T22:51:08.448Z,101420.75
2022-08-02T22:54:05.475Z,101420.19
2022-08-02T22:57:11.234Z,101415.00
2022-08-02T23:00:11.266Z,101413.53
2022-08-02T23:03:08.659Z,101405.19
2022-08-02T23:06:06.221Z,101411.59
2022-08-02T23:09:03.346Z,101418.09
2022-08-02T23:12:00.295Z,101409.00
2022-08-02T23:14:57.312Z,101421.41
2022-08-02T23:18:12.633Z,101410.78
2022-08-02T23:21:11.394Z,101405.06
2022-08-02T23:24:08.311Z,101404.59
2022-08-02T23:27:05.632Z,101405.81
2022-08-02T23:30:02.446Z,101398.06
2022-08-02T23:33:00.503Z,101400.28
2022-08-02T23:35:59.587Z,101397.41
2022-08-02T23:38:56.806Z,101404.31
2022-08-02T23:41:55.994Z,101392.13
2022-08-02T23:44:53.969Z,101398.28
2022-08-02T23:47:51.521Z,101398.66
2022-08-02T23:50:48.471Z,101398.66
2022-08-02T23:53:45.929Z,101392.94
2022-08-02T23:56:43.268Z,101393.88
2022-08-02T23:59:40.310Z,101398.84
